Time;durP1;ratioP1;P1;durP2;ratioP2;P2;SDS_P1;SDS_P2;PMS_P1;PMS_P2;Temp;Humidity;BMP_temperature;BMP_pressure;BME280_temperature;BME280_humidity;BME280_pressure;Samples;Min_cycle;Max_cycle;Signal;HPM_P1;HPM_P2
2021/11/11 00:00:40;;;;;;;0.70;0.70;;;0.20;99.90;;;;;;5034854;28;20284;-83
2021/11/11 00:03:06;;;;;;;0.70;0.70;;;0.20;99.90;;;;;;5049497;28;20233;-83
2021/11/11 00:05:33;;;;;;;0.70;0.70;;;0.20;99.90;;;;;;5019045;28;20604;-84
2021/11/11 00:08:00;;;;;;;0.60;0.60;;;0.10;99.90;;;;;;5014266;28;20257;-83
2021/11/11 00:10:26;;;;;;;0.70;0.70;;;0.00;99.90;;;;;;5034705;28;20217;-83
2021/11/11 00:12:54;;;;;;;0.80;0.80;;;0.00;99.90;;;;;;5036278;28;20653;-83
2021/11/11 00:15:21;;;;;;;0.68;0.68;;;0.00;99.90;;;;;;5019246;28;20305;-83
2021/11/11 00:17:48;;;;;;;0.70;0.70;;;-0.10;99.90;;;;;;5017854;28;20209;-83
2021/11/11 00:20:17;;;;;;;1.05;1.05;;;-0.20;99.90;;;;;;5017883;28;20584;-83
2021/11/11 00:22:44;;;;;;;0.80;0.80;;;-0.20;99.90;;;;;;5016718;28;20329;-83
2021/11/11 00:25:10;;;;;;;0.70;0.70;;;-0.20;99.90;;;;;;5034838;28;20206;-83
2021/11/11 00:27:38;;;;;;;0.63;0.63;;;-0.30;99.90;;;;;;5034735;28;20201;-82
2021/11/11 00:30:07;;;;;;;0.80;0.80;;;-0.30;99.90;;;;;;5039539;28;20546;-83
2021/11/11 00:32:34;;;;;;;0.60;0.60;;;-0.30;99.90;;;;;;5033486;28;20317;-83
2021/11/11 00:35:00;;;;;;;0.70;0.70;;;-0.30;99.90;;;;;;5035038;28;20692;-83
2021/11/11 00:37:26;;;;;;;0.60;0.60;;;-0.30;99.90;;;;;;5036464;28;20264;-83
2021/11/11 00:39:51;;;;;;;0.80;0.80;;;-0.30;99.90;;;;;;5054318;28;20232;-83
2021/11/11 00:42:18;;;;;;;0.70;0.70;;;-0.30;99.90;;;;;;5036576;28;20202;-83
2021/11/11 00:44:45;;;;;;;0.68;0.68;;;-0.30;99.90;;;;;;5036276;28;20297;-83
2021/11/11 00:47:12;;;;;;;0.60;0.60;;;-0.30;99.90;;;;;;5019166;28;20252;-83
2021/11/11 00:49:38;;;;;;;0.70;0.70;;;-0.40;99.90;;;;;;5036345;28;20229;-83
2021/11/11 00:52:04;;;;;;;0.80;0.80;;;-0.30;99.90;;;;;;5054496;28;20201;-83
2021/11/11 00:54:31;;;;;;;0.80;0.80;;;-0.10;99.90;;;;;;5036355;28;20380;-82
2021/11/11 00:56:56;;;;;;;0.70;0.70;;;-0.10;99.90;;;;;;5054092;28;20205;-81
2021/11/11 00:59:22;;;;;;;0.75;0.75;;;0.00;99.90;;;;;;5037319;28;20292;-82
2021/11/11 01:01:48;;;;;;;0.60;0.60;;;0.10;99.90;;;;;;5036611;28;20206;-82
2021/11/11 01:04:13;;;;;;;0.98;0.98;;;0.10;99.90;;;;;;5036104;28;20210;-83
2021/11/11 01:06:39;;;;;;;0.63;0.63;;;0.00;99.90;;;;;;5035027;28;20267;-82
2021/11/11 01:09:05;;;;;;;0.85;0.85;;;0.00;99.90;;;;;;5036048;28;20292;-82
2021/11/11 01:11:30;;;;;;;0.80;0.80;;;0.00;99.90;;;;;;5035897;28;20205;-82
2021/11/11 01:13:56;;;;;;;0.70;0.70;;;0.10;99.90;;;;;;5053971;28;20729;-82
2021/11/11 01:16:22;;;;;;;0.70;0.70;;;0.10;99.90;;;;;;5053332;28;20197;-82
2021/11/11 01:18:48;;;;;;;0.80;0.80;;;0.10;99.90;;;;;;5053830;28;20259;-82
2021/11/11 01:21:14;;;;;;;0.63;0.63;;;0.10;99.90;;;;;;5035598;28;20201;-82
2021/11/11 01:23:40;;;;;;;0.80;0.80;;;0.10;99.90;;;;;;5053499;28;20213;-82
2021/11/11 01:26:07;;;;;;;0.70;0.70;;;0.10;99.90;;;;;;5037494;28;20201;-82
2021/11/11 01:28:34;;;;;;;0.60;0.60;;;0.20;99.90;;;;;;5035389;28;20201;-83
2021/11/11 01:31:01;;;;;;;0.80;0.80;;;0.20;99.90;;;;;;5035571;28;20333;-82
2021/11/11 01:33:27;;;;;;;0.80;0.80;;;0.30;99.90;;;;;;5054761;28;20208;-82
2021/11/11 01:35:53;;;;;;;0.70;0.70;;;0.30;99.90;;;;;;5035485;28;20236;-83
2021/11/11 01:38:19;;;;;;;0.70;0.70;;;0.30;99.90;;;;;;5035600;28;20205;-84
2021/11/11 01:40:45;;;;;;;0.77;0.77;;;0.30;99.90;;;;;;5035740;28;20763;-83
2021/11/11 01:43:11;;;;;;;0.80;0.80;;;0.20;99.90;;;;;;5035645;28;20213;-82
2021/11/11 01:45:40;;;;;;;0.60;0.60;;;0.10;99.90;;;;;;5054369;28;20198;-83
2021/11/11 01:48:12;;;;;;;0.80;0.80;;;0.10;99.90;;;;;;5033905;28;20649;-82
2021/11/11 01:50:38;;;;;;;0.80;0.80;;;0.10;99.90;;;;;;5035474;28;20213;-83
2021/11/11 01:53:05;;;;;;;0.80;0.80;;;0.00;99.90;;;;;;5035044;28;20198;-83
2021/11/11 01:55:32;;;;;;;0.70;0.70;;;0.00;99.90;;;;;;5033495;28;20657;-82
2021/11/11 01:57:58;;;;;;;0.70;0.70;;;-0.10;99.90;;;;;;5053153;28;20580;-83
2021/11/11 02:00:30;;;;;;;0.68;0.68;;;-0.10;99.90;;;;;;5035123;28;20247;-85
2021/11/11 02:03:05;;;;;;;0.70;0.70;;;-0.10;99.90;;;;;;5035431;28;20698;-85
2021/11/11 02:05:32;;;;;;;0.60;0.60;;;0.00;99.90;;;;;;5035086;28;20217;-86
2021/11/11 02:07:58;;;;;;;0.80;0.80;;;0.00;99.90;;;;;;5035434;28;20202;-85
2021/11/11 02:10:25;;;;;;;0.70;0.70;;;0.00;99.90;;;;;;5035128;28;20198;-85
2021/11/11 02:12:51;;;;;;;0.75;0.75;;;0.00;99.90;;;;;;5035409;28;20203;-85
2021/11/11 02:15:19;;;;;;;0.75;0.75;;;0.10;99.90;;;;;;5036450;28;20786;-85
2021/11/11 02:17:45;;;;;;;0.70;0.70;;;0.10;99.90;;;;;;5053194;28;20653;-86
2021/11/11 02:20:42;;;;;;;0.70;0.70;;;0.20;99.90;;;;;;5034061;28;20299;-85
2021/11/11 02:23:11;;;;;;;0.80;0.80;;;0.20;99.90;;;;;;5032645;28;20617;-86
2021/11/11 02:25:38;;;;;;;0.70;0.70;;;0.30;99.90;;;;;;5034740;28;20271;-86
2021/11/11 02:28:07;;;;;;;0.68;0.68;;;0.30;99.90;;;;;;5036883;28;20201;-86
2021/11/11 02:30:34;;;;;;;0.77;0.77;;;0.30;99.90;;;;;;5034748;28;20216;-85
2021/11/11 02:33:01;;;;;;;0.60;0.60;;;0.30;99.90;;;;;;5035041;28;20194;-86
2021/11/11 02:35:27;;;;;;;0.70;0.70;;;0.30;99.90;;;;;;5028147;28;20288;-85
2021/11/11 02:37:53;;;;;;;0.68;0.68;;;0.30;99.90;;;;;;5014652;28;20214;-86
2021/11/11 02:40:24;;;;;;;0.60;0.60;;;0.30;99.90;;;;;;5014840;28;20202;-85
2021/11/11 02:42:51;;;;;;;0.88;0.88;;;0.30;99.90;;;;;;5014526;28;20677;-85
2021/11/11 02:45:24;;;;;;;1.55;1.05;;;0.30;99.90;;;;;;5015863;28;20201;-85
2021/11/11 02:47:51;;;;;;;0.80;0.80;;;0.30;99.90;;;;;;5016172;28;20214;-86
2021/11/11 02:50:17;;;;;;;0.80;0.80;;;0.40;99.90;;;;;;5016151;28;20202;-85
2021/11/11 02:52:45;;;;;;;0.70;0.70;;;0.40;99.90;;;;;;5014866;28;20240;-85
2021/11/11 02:55:11;;;;;;;0.60;0.60;;;0.50;99.90;;;;;;5015800;28;20535;-85
2021/11/11 02:57:38;;;;;;;0.85;0.85;;;0.50;99.90;;;;;;5014552;28;20202;-85
2021/11/11 03:00:13;;;;;;;0.70;0.70;;;0.50;99.90;;;;;;5016153;28;20202;-85
2021/11/11 03:02:42;;;;;;;0.70;0.70;;;0.50;99.90;;;;;;5031771;28;20239;-85
2021/11/11 03:05:10;;;;;;;0.70;0.70;;;0.50;99.90;;;;;;5019222;28;20297;-86
2021/11/11 03:07:36;;;;;;;0.70;0.70;;;0.50;99.90;;;;;;5024887;28;20190;-86
2021/11/11 03:10:06;;;;;;;0.93;0.93;;;0.50;99.90;;;;;;5025075;28;20256;-86
2021/11/11 03:12:31;;;;;;;0.77;0.77;;;0.50;99.90;;;;;;4999091;28;20580;-86
2021/11/11 03:14:57;;;;;;;0.65;0.65;;;0.50;99.90;;;;;;5015749;28;20306;-86
2021/11/11 03:17:24;;;;;;;0.70;0.70;;;0.50;99.90;;;;;;5014293;28;20206;-86
2021/11/11 03:19:50;;;;;;;0.70;0.70;;;0.60;99.90;;;;;;5014324;28;20614;-86
2021/11/11 03:22:19;;;;;;;0.80;0.80;;;0.60;99.90;;;;;;5014427;28;20210;-85
2021/11/11 03:24:47;;;;;;;0.75;0.75;;;0.60;99.90;;;;;;5036549;28;20531;-86
2021/11/11 03:27:12;;;;;;;0.70;0.70;;;0.70;99.90;;;;;;5028043;28;20661;-86
2021/11/11 03:29:39;;;;;;;0.70;0.70;;;0.70;99.90;;;;;;5014343;28;20204;-86
2021/11/11 03:32:06;;;;;;;0.60;0.60;;;0.70;99.90;;;;;;5014155;28;20198;-86
2021/11/11 03:34:32;;;;;;;0.70;0.70;;;0.80;99.90;;;;;;5014421;28;20206;-86
2021/11/11 03:36:58;;;;;;;0.70;0.70;;;0.90;99.90;;;;;;5034128;28;20197;-86
2021/11/11 03:39:25;;;;;;;0.60;0.60;;;0.90;99.90;;;;;;5038842;28;20232;-86
2021/11/11 03:41:52;;;;;;;0.70;0.70;;;0.90;99.90;;;;;;5034002;28;20304;-86
2021/11/11 03:44:19;;;;;;;1.17;1.05;;;0.90;99.90;;;;;;5051465;28;20247;-85
2021/11/11 03:46:48;;;;;;;0.70;0.70;;;0.90;99.90;;;;;;5034027;28;20222;-84
2021/11/11 03:49:14;;;;;;;0.60;0.60;;;0.90;99.90;;;;;;5033941;28;20197;-85
2021/11/11 03:51:41;;;;;;;0.60;0.60;;;0.90;99.90;;;;;;5033576;28;20212;-86
2021/11/11 03:54:08;;;;;;;0.60;0.60;;;0.90;99.90;;;;;;5051892;28;20201;-86
2021/11/11 03:56:35;;;;;;;0.68;0.68;;;0.90;99.90;;;;;;5033521;28;20217;-85
2021/11/11 03:59:02;;;;;;;0.60;0.60;;;0.90;99.90;;;;;;5033796;28;20669;-86
2021/11/11 04:01:27;;;;;;;0.65;0.65;;;0.90;99.90;;;;;;5027282;28;20201;-86
2021/11/11 04:03:53;;;;;;;0.60;0.60;;;0.90;99.90;;;;;;5033438;28;20216;-85
2021/11/11 04:06:19;;;;;;;0.60;0.60;;;0.90;99.90;;;;;;5033427;28;20259;-85
2021/11/11 04:08:45;;;;;;;0.70;0.70;;;0.90;99.90;;;;;;5034801;28;20193;-85
2021/11/11 04:11:10;;;;;;;0.65;0.65;;;0.90;99.90;;;;;;5033513;28;20702;-86
2021/11/11 04:13:37;;;;;;;0.70;0.70;;;1.00;99.90;;;;;;5033264;28;20190;-85
2021/11/11 04:16:03;;;;;;;0.52;0.52;;;1.00;99.90;;;;;;5051314;28;20676;-85
2021/11/11 04:18:29;;;;;;;0.60;0.60;;;1.00;99.90;;;;;;5033280;28;20205;-86
2021/11/11 04:21:00;;;;;;;0.70;0.70;;;1.00;99.90;;;;;;5027272;28;20281;-87
2021/11/11 04:23:26;;;;;;;0.82;0.82;;;1.00;99.90;;;;;;5033103;28;20700;-87
2021/11/11 04:28:32;;;;;;;0.70;0.70;;;1.10;99.90;;;;;;5050915;28;20680;-86
2021/11/11 04:31:01;;;;;;;0.88;0.88;;;1.10;99.90;;;;;;5032698;28;20290;-85
2021/11/11 04:33:28;;;;;;;0.70;0.70;;;1.20;99.90;;;;;;5051317;28;20205;-85
2021/11/11 04:36:06;;;;;;;0.90;0.90;;;1.30;99.90;;;;;;5023739;28;20230;-85
2021/11/11 05:05:18;;;;;;;0.60;0.60;;;1.80;99.90;;;;;;5034339;28;20248;-86
2021/11/11 05:07:44;;;;;;;0.60;0.60;;;1.80;99.90;;;;;;5017696;28;20226;-86
2021/11/11 05:10:10;;;;;;;0.60;0.60;;;1.90;99.90;;;;;;5015653;28;20207;-86
2021/11/11 05:12:36;;;;;;;0.60;0.60;;;1.90;99.90;;;;;;5025274;28;20194;-86
2021/11/11 05:15:04;;;;;;;0.63;0.63;;;2.00;99.90;;;;;;5016478;28;20209;-86
2021/11/11 05:17:30;;;;;;;0.70;0.70;;;2.00;99.90;;;;;;5016396;28;20191;-86
2021/11/11 05:19:55;;;;;;;0.60;0.60;;;2.00;99.90;;;;;;5017407;28;20687;-85
2021/11/11 05:22:21;;;;;;;0.50;0.50;;;2.10;99.90;;;;;;5035111;28;20194;-85
2021/11/11 05:24:47;;;;;;;0.60;0.60;;;2.10;99.90;;;;;;5013337;28;20219;-86
2021/11/11 05:27:14;;;;;;;0.55;0.55;;;2.20;99.90;;;;;;5021957;28;20277;-87
2021/11/11 05:29:41;;;;;;;0.63;0.63;;;2.20;99.90;;;;;;5016009;28;20804;-86
2021/11/11 05:32:07;;;;;;;1.73;1.63;;;2.30;99.90;;;;;;5019028;28;20201;-85
2021/11/11 05:34:33;;;;;;;0.98;0.98;;;2.30;99.90;;;;;;5033154;28;20292;-85
2021/11/11 05:36:59;;;;;;;0.60;0.60;;;2.20;99.90;;;;;;5035581;28;20604;-86
2021/11/11 05:39:24;;;;;;;0.88;0.88;;;2.20;99.90;;;;;;5035878;28;20233;-86
2021/11/11 05:41:50;;;;;;;0.60;0.60;;;2.20;99.90;;;;;;5036156;28;20255;-86
2021/11/11 05:44:16;;;;;;;0.50;0.50;;;2.10;99.90;;;;;;5035978;28;20746;-86
2021/11/11 05:46:41;;;;;;;0.70;0.70;;;2.20;99.90;;;;;;5035955;28;20668;-86
2021/11/11 05:49:07;;;;;;;0.63;0.63;;;2.20;99.90;;;;;;5054029;28;20255;-86
2021/11/11 05:51:33;;;;;;;0.70;0.70;;;2.20;99.90;;;;;;5035650;28;20229;-86
2021/11/11 05:53:59;;;;;;;0.73;0.73;;;2.30;99.90;;;;;;5036534;28;20206;-86
2021/11/11 05:56:25;;;;;;;0.60;0.60;;;2.30;99.90;;;;;;5036023;28;20205;-86
2021/11/11 05:58:51;;;;;;;0.60;0.60;;;2.30;99.90;;;;;;5035717;28;20197;-85
2021/11/11 06:01:16;;;;;;;0.68;0.68;;;2.30;99.90;;;;;;5035309;28;20193;-85
2021/11/11 06:03:42;;;;;;;0.52;0.52;;;2.30;99.90;;;;;;5035398;28;20193;-84
2021/11/11 06:06:08;;;;;;;0.60;0.60;;;2.20;99.90;;;;;;5044878;28;20204;-85
2021/11/11 06:08:33;;;;;;;0.60;0.60;;;2.20;99.90;;;;;;5035131;28;20201;-85
2021/11/11 06:10:59;;;;;;;0.68;0.68;;;2.10;99.90;;;;;;5036178;28;20572;-85
2021/11/11 06:13:25;;;;;;;0.70;0.70;;;2.10;99.90;;;;;;5052634;28;20242;-84
2021/11/11 06:15:52;;;;;;;0.60;0.60;;;2.30;99.90;;;;;;5036024;28;20205;-84
2021/11/11 06:18:20;;;;;;;0.75;0.75;;;2.30;99.90;;;;;;5034773;28;20202;-84
2021/11/11 06:20:48;;;;;;;0.60;0.60;;;2.30;99.90;;;;;;5052619;28;20205;-85
2021/11/11 06:23:14;;;;;;;0.73;0.73;;;2.50;99.90;;;;;;5053138;28;20210;-85
2021/11/11 06:25:41;;;;;;;0.80;0.80;;;2.50;99.90;;;;;;5034575;28;20224;-84
2021/11/11 06:28:08;;;;;;;0.60;0.60;;;2.50;99.90;;;;;;5035181;28;20224;-83
2021/11/11 06:30:35;;;;;;;0.60;0.60;;;2.50;99.90;;;;;;5052589;28;20280;-87
2021/11/11 06:33:00;;;;;;;0.70;0.70;;;2.50;99.90;;;;;;5034739;28;20284;-85
2021/11/11 06:35:31;;;;;;;0.70;0.70;;;2.70;99.90;;;;;;5034318;28;20666;-85
2021/11/11 06:37:59;;;;;;;0.60;0.60;;;2.70;99.90;;;;;;5034765;28;20687;-85
2021/11/11 06:40:26;;;;;;;0.57;0.57;;;2.70;99.90;;;;;;5052273;28;20712;-86
2021/11/11 06:42:52;;;;;;;0.70;0.70;;;2.80;99.90;;;;;;5034604;28;20229;-86
2021/11/11 06:45:19;;;;;;;0.82;0.82;;;2.90;99.90;;;;;;5032658;28;20229;-86
2021/11/11 06:47:45;;;;;;;2.30;2.05;;;3.10;99.90;;;;;;5034157;28;20210;-86
2021/11/11 06:50:11;;;;;;;0.80;0.80;;;3.20;99.90;;;;;;5051684;28;20299;-86
2021/11/11 06:52:37;;;;;;;0.95;0.90;;;3.20;99.90;;;;;;5033748;28;20639;-86
2021/11/11 06:55:05;;;;;;;0.63;0.63;;;3.30;99.90;;;;;;5052189;28;20198;-87
2021/11/11 06:57:31;;;;;;;0.50;0.50;;;3.30;99.90;;;;;;5052232;28;20213;-86
2021/11/11 06:59:56;;;;;;;0.55;0.55;;;3.30;99.90;;;;;;5033607;28;20201;-85
2021/11/11 07:02:26;;;;;;;0.70;0.70;;;3.40;99.90;;;;;;5050541;28;20202;-86
2021/11/11 07:04:54;;;;;;;0.60;0.60;;;3.40;99.90;;;;;;5034091;28;20653;-86
2021/11/11 07:07:20;;;;;;;1.45;1.35;;;3.50;99.90;;;;;;5033853;28;20562;-86
2021/11/11 07:09:46;;;;;;;0.60;0.60;;;3.50;99.90;;;;;;5033966;28;20205;-85
2021/11/11 07:12:12;;;;;;;0.50;0.50;;;3.60;99.90;;;;;;5053336;28;20209;-86
2021/11/11 07:14:41;;;;;;;0.60;0.60;;;3.60;99.90;;;;;;5033938;28;20582;-84
2021/11/11 07:17:07;;;;;;;0.60;0.60;;;3.80;99.90;;;;;;5035083;28;20209;-86
2021/11/11 07:19:33;;;;;;;0.80;0.80;;;3.80;99.90;;;;;;5051627;28;20267;-86
2021/11/11 07:22:00;;;;;;;0.70;0.70;;;3.80;99.90;;;;;;5033673;28;20301;-86
2021/11/11 07:24:26;;;;;;;0.50;0.50;;;3.80;99.90;;;;;;5051152;28;20217;-85
2021/11/11 07:26:52;;;;;;;0.52;0.52;;;3.80;99.90;;;;;;5033631;28;20268;-86
2021/11/11 07:29:18;;;;;;;0.70;0.70;;;3.80;99.90;;;;;;5033863;28;20730;-85
2021/11/11 07:31:45;;;;;;;3.70;2.70;;;3.90;99.90;;;;;;5035072;28;20620;-88
2021/11/11 07:34:11;;;;;;;0.75;0.75;;;3.90;99.90;;;;;;5034568;28;20209;-88
2021/11/11 07:36:38;;;;;;;0.70;0.70;;;4.00;99.90;;;;;;5017467;28;20230;-88
2021/11/11 07:39:05;;;;;;;1.85;0.80;;;4.20;99.90;;;;;;5032223;28;20205;-86
2021/11/11 07:41:30;;;;;;;0.52;0.52;;;4.20;99.90;;;;;;5031225;28;20213;-86
2021/11/11 07:43:56;;;;;;;0.63;0.63;;;4.20;99.90;;;;;;5015037;28;21200;-85
2021/11/11 07:46:22;;;;;;;0.75;0.75;;;4.20;99.90;;;;;;5031209;28;21086;-85
2021/11/11 07:48:48;;;;;;;0.60;0.60;;;4.20;99.90;;;;;;5013574;28;20213;-85
2021/11/11 07:51:13;;;;;;;4.35;1.80;;;4.20;99.90;;;;;;5013756;28;20272;-85
2021/11/11 07:53:39;;;;;;;0.60;0.60;;;4.30;99.90;;;;;;5031811;28;20263;-85
2021/11/11 07:56:05;;;;;;;0.70;0.70;;;4.40;99.90;;;;;;5026305;28;20211;-85
2021/11/11 07:58:31;;;;;;;0.65;0.65;;;4.40;99.90;;;;;;5047922;28;20218;-86
2021/11/11 08:00:57;;;;;;;0.50;0.50;;;4.40;99.90;;;;;;5014025;28;20704;-86
2021/11/11 08:03:23;;;;;;;0.60;0.60;;;4.30;99.90;;;;;;5031189;28;20256;-85
2021/11/11 08:05:48;;;;;;;0.68;0.68;;;4.40;99.90;;;;;;5013442;28;20214;-86
2021/11/11 08:08:14;;;;;;;1.92;1.77;;;4.50;99.90;;;;;;5016354;28;20208;-86
2021/11/11 08:10:40;;;;;;;0.80;0.80;;;4.60;99.90;;;;;;5014325;28;20210;-87
2021/11/11 08:13:06;;;;;;;1.15;1.08;;;4.80;99.90;;;;;;5018632;28;20240;-87
2021/11/11 08:15:32;;;;;;;0.70;0.70;;;4.90;99.90;;;;;;5036629;28;20224;-88
2021/11/11 08:17:58;;;;;;;0.60;0.60;;;5.00;99.90;;;;;;5018492;28;20266;-87
2021/11/11 08:20:24;;;;;;;0.70;0.70;;;5.10;99.90;;;;;;5018445;28;20549;-89
2021/11/11 08:22:51;;;;;;;2.17;1.98;;;5.10;99.90;;;;;;5019398;28;20245;-88
2021/11/11 08:25:19;;;;;;;0.57;0.57;;;5.20;99.90;;;;;;5017648;28;20248;-88
2021/11/11 08:27:45;;;;;;;0.60;0.60;;;5.20;99.90;;;;;;5018630;28;20202;-87
2021/11/11 08:30:15;;;;;;;0.70;0.70;;;5.30;99.90;;;;;;5018184;28;20703;-86
2021/11/11 08:32:43;;;;;;;2.38;2.17;;;5.40;99.90;;;;;;5019293;28;20208;-87
2021/11/11 08:35:10;;;;;;;0.70;0.70;;;5.50;99.90;;;;;;5017934;28;20246;-88
2021/11/11 08:37:37;;;;;;;1.45;1.35;;;5.60;99.90;;;;;;5033098;28;20277;-88
2021/11/11 08:40:04;;;;;;;0.90;0.90;;;5.70;99.90;;;;;;5032980;28;20206;-88
2021/11/11 08:42:30;;;;;;;0.70;0.70;;;5.80;99.90;;;;;;5000134;28;20574;-89
2021/11/11 08:44:56;;;;;;;0.63;0.63;;;5.90;99.90;;;;;;5018533;28;20214;-89
2021/11/11 08:47:22;;;;;;;0.70;0.70;;;6.00;99.90;;;;;;5035449;28;20673;-87
2021/11/11 08:49:51;;;;;;;0.70;0.70;;;6.10;99.90;;;;;;5051595;28;20249;-87
2021/11/11 08:52:18;;;;;;;0.73;0.73;;;6.10;99.90;;;;;;5034493;28;20206;-87
2021/11/11 08:54:44;;;;;;;0.60;0.60;;;6.20;99.90;;;;;;5032647;28;20220;-89
2021/11/11 08:57:11;;;;;;;0.70;0.70;;;6.20;99.90;;;;;;5017711;28;20577;-88
2021/11/11 08:59:37;;;;;;;0.70;0.70;;;6.20;99.90;;;;;;5017026;28;20209;-88
2021/11/11 09:02:03;;;;;;;0.90;0.90;;;6.30;99.90;;;;;;5033062;28;20217;-88
2021/11/11 09:04:29;;;;;;;0.70;0.70;;;6.30;99.90;;;;;;5029186;28;20210;-92
2021/11/11 09:06:58;;;;;;;0.50;0.50;;;6.40;99.90;;;;;;5028876;28;20209;-88
2021/11/11 09:09:24;;;;;;;0.60;0.60;;;6.40;99.90;;;;;;5032995;28;20202;-88
2021/11/11 09:11:50;;;;;;;0.70;0.70;;;6.50;99.90;;;;;;5033101;28;20197;-87
2021/11/11 09:14:16;;;;;;;0.70;0.70;;;6.50;99.90;;;;;;5032149;28;20252;-89
2021/11/11 09:16:43;;;;;;;0.70;0.70;;;6.50;99.90;;;;;;5032522;28;20213;-89
2021/11/11 09:19:09;;;;;;;0.70;0.70;;;6.50;99.90;;;;;;5026935;28;20298;-86
2021/11/11 09:21:36;;;;;;;0.65;0.65;;;6.50;99.90;;;;;;5019209;28;20684;-87
2021/11/11 09:24:02;;;;;;;0.80;0.80;;;6.60;99.90;;;;;;5050141;28;20200;-85
2021/11/11 09:26:28;;;;;;;0.70;0.70;;;6.60;99.90;;;;;;5031169;28;20649;-85
2021/11/11 09:28:54;;;;;;;0.70;0.70;;;6.60;99.90;;;;;;5017704;28;20285;-89
2021/11/11 09:31:22;;;;;;;0.77;0.77;;;6.60;99.90;;;;;;5031613;28;20203;-88
2021/11/11 09:33:48;;;;;;;0.70;0.70;;;6.60;99.90;;;;;;5015226;28;20670;-87
2021/11/11 09:36:16;;;;;;;0.60;0.60;;;6.60;99.90;;;;;;5032652;28;20221;-87
2021/11/11 09:38:43;;;;;;;0.60;0.60;;;6.70;99.90;;;;;;5000639;28;20207;-87
2021/11/11 09:41:10;;;;;;;0.60;0.60;;;6.80;99.90;;;;;;5016240;28;20194;-85
2021/11/11 09:43:39;;;;;;;0.68;0.68;;;6.80;99.90;;;;;;5014485;28;20245;-85
2021/11/11 09:46:07;;;;;;;1.15;1.13;;;6.90;99.90;;;;;;5018727;28;20214;-86
2021/11/11 09:48:34;;;;;;;1.48;1.40;;;6.90;99.90;;;;;;5019243;28;20206;-86
2021/11/11 09:51:01;;;;;;;6.50;1.73;;;6.90;99.90;;;;;;5032087;28;20632;-87
2021/11/11 09:53:29;;;;;;;1.00;1.00;;;6.90;99.90;;;;;;5018105;28;20209;-86
2021/11/11 09:58:45;;;;;;;0.90;0.90;;;6.90;99.90;;;;;;5049450;28;20290;-86
2021/11/11 10:01:17;;;;;;;0.70;0.70;;;6.90;99.90;;;;;;5016676;28;20669;-88
2021/11/11 10:03:45;;;;;;;0.70;0.70;;;7.00;99.90;;;;;;5015475;28;20601;-88
2021/11/11 10:06:15;;;;;;;0.80;0.80;;;7.00;99.90;;;;;;5015790;28;20695;-89
2021/11/11 10:08:47;;;;;;;0.60;0.60;;;7.00;99.90;;;;;;5016102;28;20208;-89
2021/11/11 10:11:34;;;;;;;0.60;0.60;;;7.00;99.90;;;;;;5016115;28;20578;-89
2021/11/11 10:14:13;;;;;;;0.70;0.70;;;7.00;99.90;;;;;;5015144;28;20213;-87
2021/11/11 10:16:48;;;;;;;0.70;0.70;;;7.10;99.90;;;;;;5015592;28;20202;-86
2021/11/11 10:19:15;;;;;;;1.17;1.08;;;7.10;99.90;;;;;;5018024;28;20208;-89
2021/11/11 10:22:05;;;;;;;0.60;0.60;;;7.10;99.90;;;;;;5014554;28;20225;-88
2021/11/11 10:24:35;;;;;;;0.75;0.75;;;7.10;99.90;;;;;;5015992;28;20569;-90
2021/11/11 10:27:04;;;;;;;0.70;0.70;;;7.10;99.90;;;;;;5016404;28;20214;-89
2021/11/11 10:29:41;;;;;;;0.60;0.60;;;7.10;99.90;;;;;;5015982;28;20221;-88
2021/11/11 10:32:10;;;;;;;0.60;0.60;;;7.20;99.90;;;;;;5016108;28;20198;-86
2021/11/11 10:34:45;;;;;;;0.60;0.60;;;7.30;99.90;;;;;;5031467;28;20206;-88
2021/11/11 10:37:11;;;;;;;0.60;0.60;;;7.60;99.90;;;;;;5053242;28;20233;-87
2021/11/11 10:39:41;;;;;;;0.60;0.60;;;7.60;99.90;;;;;;5035199;28;20259;-86
2021/11/11 10:42:16;;;;;;;0.70;0.70;;;7.60;99.90;;;;;;5033847;28;20294;-87
2021/11/11 10:44:42;;;;;;;0.60;0.60;;;7.60;99.90;;;;;;5052557;28;20224;-85
2021/11/11 10:47:12;;;;;;;0.52;0.52;;;7.50;99.90;;;;;;5035660;28;20567;-86
2021/11/11 10:49:42;;;;;;;0.60;0.60;;;7.50;99.90;;;;;;5034363;28;20255;-87
2021/11/11 10:52:30;;;;;;;0.70;0.70;;;7.50;99.90;;;;;;5034669;28;20697;-88
2021/11/11 10:55:06;;;;;;;0.60;0.60;;;7.50;99.90;;;;;;5034022;28;20201;-86
2021/11/11 10:57:51;;;;;;;0.70;0.70;;;7.50;99.90;;;;;;5033657;28;20224;-86
2021/11/11 11:00:37;;;;;;;0.63;0.63;;;7.50;99.90;;;;;;5033153;28;20561;-86
2021/11/11 11:03:07;;;;;;;0.70;0.70;;;7.50;99.90;;;;;;5035631;28;20220;-87
2021/11/11 11:05:45;;;;;;;6.28;1.58;;;7.50;99.90;;;;;;5032900;28;20696;-88
2021/11/11 11:08:14;;;;;;;0.50;0.50;;;7.60;99.90;;;;;;5017207;28;20541;-85
2021/11/11 11:10:44;;;;;;;0.55;0.55;;;7.70;99.90;;;;;;5053049;28;20197;-85
2021/11/11 11:13:14;;;;;;;0.70;0.70;;;7.80;99.90;;;;;;5036061;28;20201;-86
2021/11/11 11:15:45;;;;;;;0.70;0.70;;;8.10;99.90;;;;;;5034523;28;20205;-86
2021/11/11 11:18:12;;;;;;;1.10;1.00;;;8.60;99.90;;;;;;5050191;28;20287;-88
2021/11/11 11:20:38;;;;;;;0.70;0.70;;;8.80;99.90;;;;;;5033965;28;20209;-87
2021/11/11 11:23:14;;;;;;;0.65;0.65;;;8.80;99.90;;;;;;5052201;28;20248;-87
2021/11/11 11:25:49;;;;;;;1.10;1.05;;;8.70;99.90;;;;;;5034083;28;20217;-87
2021/11/11 11:29:07;;;;;;;1.20;1.17;;;8.70;99.90;;;;;;5034158;28;20208;-86
2021/11/11 11:31:55;;;;;;;0.63;0.63;;;8.60;99.90;;;;;;5034850;28;20668;-87
2021/11/11 11:34:25;;;;;;;12.98;2.00;;;8.50;99.90;;;;;;5043757;28;20198;-85
2021/11/11 11:36:54;;;;;;;0.73;0.73;;;8.40;99.90;;;;;;5006916;28;20226;-85
2021/11/11 11:39:22;;;;;;;0.70;0.70;;;8.40;99.90;;;;;;5013716;28;20571;-85
2021/11/11 11:41:48;;;;;;;1.33;1.23;;;8.40;99.90;;;;;;5013817;28;20213;-86
2021/11/11 11:44:25;;;;;;;0.50;0.50;;;8.40;99.90;;;;;;5013872;28;20693;-87
2021/11/11 11:47:32;;;;;;;0.55;0.55;;;8.40;99.90;;;;;;5006987;28;20285;-87
2021/11/11 11:50:03;;;;;;;0.70;0.70;;;8.40;99.90;;;;;;5030912;28;20756;-86
2021/11/11 11:52:32;;;;;;;1.40;1.30;;;8.40;99.90;;;;;;5032836;28;20246;-87
2021/11/11 12:11:36;;;;;;;0.50;0.50;;;8.80;99.90;;;;;;5031153;28;20288;-86
2021/11/11 12:39:38;;;;;;;0.55;0.55;;;9.20;99.90;;;;;;5052548;28;20288;-88
2021/11/11 12:42:08;;;;;;;0.50;0.50;;;9.00;99.90;;;;;;5032877;28;20752;-86
2021/11/11 12:44:35;;;;;;;0.60;0.60;;;9.00;99.90;;;;;;5034018;28;20209;-87
2021/11/11 12:47:02;;;;;;;0.70;0.70;;;8.90;99.90;;;;;;5033082;28;20284;-86
2021/11/11 12:49:35;;;;;;;3.60;1.88;;;8.90;99.90;;;;;;5034146;28;20197;-87
2021/11/11 12:52:12;;;;;;;4.68;2.05;;;8.80;99.90;;;;;;5036660;28;20811;-87
2021/11/11 12:54:39;;;;;;;0.60;0.60;;;8.70;99.90;;;;;;5033985;28;20889;-86
2021/11/11 12:57:06;;;;;;;0.47;0.47;;;8.60;99.90;;;;;;5034571;28;20661;-86
2021/11/11 12:59:34;;;;;;;0.60;0.60;;;8.60;99.90;;;;;;5037560;28;20232;-89
2021/11/11 13:02:05;;;;;;;0.70;0.70;;;8.60;99.90;;;;;;5041533;28;20201;-86
2021/11/11 13:04:53;;;;;;;26.58;1.13;;;8.50;99.90;;;;;;5053997;28;20575;-85
2021/11/11 13:07:33;;;;;;;3.22;2.15;;;8.50;99.90;;;;;;5037533;28;20197;-85
2021/11/11 13:10:08;;;;;;;0.60;0.60;;;8.40;99.90;;;;;;5037008;28;20201;-85
2021/11/11 13:12:36;;;;;;;0.70;0.70;;;8.40;99.90;;;;;;5035759;28;20196;-85
2021/11/11 13:15:14;;;;;;;0.70;0.70;;;8.30;99.90;;;;;;5053913;28;20212;-84
2021/11/11 13:17:46;;;;;;;0.70;0.70;;;8.20;99.90;;;;;;5035546;28;20209;-84
2021/11/11 13:20:20;;;;;;;0.70;0.70;;;8.20;99.90;;;;;;5035159;28;20205;-85
2021/11/11 13:23:07;;;;;;;0.70;0.70;;;8.30;99.90;;;;;;5035808;28;20208;-85
2021/11/11 16:26:58;;;;;;;0.45;0.45;;;3.80;99.90;;;;;;5041750;28;20296;-85
2021/11/11 16:29:26;;;;;;;0.70;0.70;;;3.60;99.90;;;;;;5032845;28;20728;-85
2021/11/11 16:31:53;;;;;;;0.60;0.60;;;3.40;99.90;;;;;;5035157;28;20208;-85
2021/11/11 16:34:19;;;;;;;0.80;0.80;;;3.30;99.90;;;;;;5054686;28;20198;-84
2021/11/11 16:36:45;;;;;;;0.60;0.60;;;3.20;99.90;;;;;;5036820;28;20715;-85
2021/11/11 16:39:13;;;;;;;0.60;0.60;;;3.20;99.90;;;;;;5040965;28;20189;-85
2021/11/11 16:41:39;;;;;;;0.60;0.60;;;3.10;99.90;;;;;;5048364;28;20586;-83
2021/11/11 16:44:06;;;;;;;0.65;0.65;;;3.10;99.90;;;;;;5037924;28;20229;-83
2021/11/11 16:46:34;;;;;;;0.60;0.60;;;2.90;99.90;;;;;;5053365;28;20197;-83
2021/11/11 16:49:00;;;;;;;0.70;0.70;;;2.90;99.90;;;;;;5036782;28;20604;-83
2021/11/11 16:51:26;;;;;;;0.65;0.65;;;2.80;99.90;;;;;;5036469;28;20202;-83
2021/11/11 16:53:52;;;;;;;0.70;0.70;;;2.70;99.90;;;;;;5037148;28;20646;-83
2021/11/11 16:56:19;;;;;;;0.80;0.80;;;2.60;99.90;;;;;;5053473;28;20718;-83
2021/11/11 16:58:45;;;;;;;0.77;0.77;;;2.50;99.90;;;;;;5035475;28;20239;-84
2021/11/11 17:01:12;;;;;;;0.60;0.60;;;2.50;99.90;;;;;;5055154;28;20680;-83
2021/11/11 17:03:38;;;;;;;0.60;0.60;;;2.50;99.90;;;;;;5054480;28;20660;-85
2021/11/11 17:06:05;;;;;;;0.60;0.60;;;2.40;99.90;;;;;;5036149;28;20220;-86
2021/11/11 17:08:31;;;;;;;0.60;0.60;;;2.40;99.90;;;;;;5035264;28;20212;-87
2021/11/11 17:10:56;;;;;;;0.60;0.60;;;2.30;99.90;;;;;;5034882;28;20579;-86
2021/11/11 17:13:22;;;;;;;0.70;0.70;;;2.20;99.90;;;;;;5053884;28;20669;-85
2021/11/11 17:15:48;;;;;;;0.75;0.75;;;2.20;99.90;;;;;;5038591;28;20201;-86